DW9882 Weather Reports


time (UTC)temp
F
wind
direction
speed
knots
gust
knots
rain 1hr
in
rain 24hr
in
rain mn
in
humidity
%
barometer
mb
20201025132704 15 31 2.6 4.3 0.00 0.01 0.00 87 1020.5
20201025132203 15 11 0.9 6.1 0.00 0.01 0.00 87 1020.4
20201025131709 16 24 1.7 4.3 0.00 0.01 0.00 87 1020.4
20201025131204 16 16 2.6 7.8 0.00 0.01 0.00 87 1020.4
20201025130712 16 345 1.7 7.0 0.00 0.01 0.00 87 1020.2
20201025130203 16 12 1.7 6.1 0.00 0.01 0.00 87 1020.2
20201025125703 16 25 1.7 5.2 0.00 0.01 0.00 87 1020.1
20201025125206 16 6 0.9 8.7 0.00 0.01 0.00 88 1020.0
20201025124706 16 353 2.6 8.7 0.00 0.01 0.00 88 1020.1
20201025124209 16 14 1.7 7.0 0.00 0.01 0.00 88 1020.1
20201025123711 16 19 1.7 5.2 0.00 0.01 0.00 88 1020.0
20201025123206 16 32 0.9 5.2 0.00 0.01 0.00 88 1019.8
20201025122704 17 21 1.7 8.7 0.00 0.01 0.00 88 1019.8
20201025122217 17 34 0.0 2.6 0.00 0.01 0.00 88 1019.6
20201025121704 17 14 0.9 6.1 0.00 0.01 0.00 88 1019.5
20201025121204 17 21 1.7 7.0 0.00 0.01 0.00 88 1019.4
20201025120704 17 38 1.7 7.0 0.00 0.01 0.00 88 1019.6
20201025120208 17 42 0.9 4.3 0.00 0.01 0.00 88 1019.7
20201025115703 17 1 2.6 7.0 0.00 0.01 0.00 88 1019.6
20201025115205 17 1 1.7 4.3 0.00 0.01 0.00 88 1019.7
20201025114705 17 9 4.3 10.4 0.00 0.01 0.00 88 1019.4
20201025114208 18 14 5.2 10.4 0.00 0.01 0.00 88 1019.3
20201025113706 18 352 2.6 7.8 0.00 0.01 0.00 88 1019.3
20201025113203 18 10 1.7 5.2 0.00 0.01 0.00 88 1019.3
20201025112712 18 350 3.5 7.8 0.00 0.01 0.00 88 1019.2
20201025112204 18 358 0.9 4.3 0.00 0.01 0.00 88 1019.2
20201025111704 18 25 2.6 7.0 0.00 0.01 0.00 88 1019.1
20201025111207 18 352 2.6 10.4 0.00 0.01 0.00 88 1019.1
20201025110704 18 63 0.9 4.3 0.00 0.01 0.00 88 1019.0
20201025110204 18 51 2.6 7.0 0.00 0.01 0.00 88 1018.9
20201025105705 18 47 1.7 5.2 0.00 0.01 0.00 88 1018.9
20201025105204 19 20 0.9 7.0 0.00 0.01 0.00 88 1019.0
20201025104704 19 9 0.9 4.3 0.00 0.01 0.00 88 1018.9
20201025104203 19 20 4.3 10.4 0.00 0.01 0.00 87 1018.8
20201025103705 19 28 2.6 7.8 0.00 0.01 0.00 87 1018.8
20201025103203 19 45 1.7 7.8 0.00 0.01 0.00 88 1018.8
20201025102706 19 49 0.9 4.3 0.00 0.01 0.00 87 1018.6
20201025102207 20 61 0.9 7.0 0.00 0.01 0.00 87 1018.6
20201025101706 20 37 1.7 5.2 0.00 0.01 0.00 87 1018.5
20201025101204 20 37 2.6 7.0 0.00 0.01 0.00 87 1018.6
20201025100704 20 59 0.9 5.2 0.00 0.01 0.00 87 1018.6
20201025100204 20 51 0.9 5.2 0.00 0.01 0.00 86 1018.5
20201025095704 20 24 2.6 7.8 0.00 0.01 0.00 86 1018.5
20201025095205 20 8 0.9 2.6 0.00 0.01 0.00 86 1018.5
20201025094708 21 19 2.6 7.0 0.00 0.01 0.00 86 1018.5
20201025094205 21 0 2.6 7.0 0.00 0.01 0.00 85 1018.3
20201025093703 21 14 2.6 2.6 0.00 0.01 0.00 85 1018.3
20201025093203 21 6 1.7 6.1 0.00 0.01 0.00 85 1018.4
20201025092703 21 24 0.9 2.6 0.00 0.01 0.00 84 1018.3
20201025092204 21 29 1.7 7.8 0.00 0.01 0.00 83 1018.3
20201025091704 22 35 1.7 7.0 0.00 0.01 0.00 83 1018.4
20201025091206 22 354 1.7 8.7 0.00 0.01 0.00 82 1018.5
20201025090718 22 23 3.5 7.8 0.00 0.01 0.00 82 1018.3
20201025090213 22 10 1.7 7.0 0.00 0.01 0.00 81 1018.5
20201025085711 23 53 0.9 7.0 0.00 0.01 0.00 80 1018.3
20201025085204 23 351 2.6 7.8 0.00 0.01 0.00 79 1018.3
20201025084704 23 0 4.3 7.0 0.00 0.01 0.00 78 1018.3
20201025084208 23 355 2.6 7.8 0.00 0.01 0.00 77 1018.3
20201025083706 24 0 2.6 8.7 0.00 0.01 0.00 76 1018.2
20201025083208 24 358 2.6 8.7 0.00 0.01 0.00 75 1018.1
20201025082714 24 5 2.6 7.0 0.00 0.01 0.00 74 1018.0
20201025082204 24 352 2.6 5.2 0.00 0.01 0.00 74 1017.9
20201025081704 25 22 2.6 10.4 0.00 0.01 0.00 73 1017.9
20201025081204 25 47 3.5 8.7 0.00 0.01 0.00 73 1017.9
20201025080705 25 31 3.5 7.8 0.00 0.01 0.00 72 1017.9
20201025080205 26 33 4.3 7.8 0.00 0.01 0.00 72 1017.9
20201025075703 26 52 2.6 7.0 0.00 0.01 0.00 72 1017.7
20201025075204 26 30 3.5 7.0 0.00 0.01 0.00 71 1017.7
20201025074706 27 47 2.6 6.1 0.00 0.01 0.00 71 1017.7
20201025074204 27 33 1.7 6.1 0.00 0.01 0.00 72 1017.8
20201025073709 27 33 2.6 7.0 0.00 0.01 0.00 72 1017.8
20201025073207 27 4 2.6 7.0 0.00 0.01 0.00 72 1017.6
20201025072703 28 32 2.6 7.0 0.00 0.01 0.00 72 1017.6
20201025072208 28 34 1.7 4.3 0.00 0.01 0.00 73 1017.5
20201025071707 28 26 0.0 6.1 0.00 0.01 0.00 73 1017.5
20201025071206 28 16 2.6 6.1 0.00 0.01 0.00 74 1017.5
20201025070704 28 33 2.6 6.1 0.00 0.01 0.00 74 1017.4
20201025070205 28 23 2.6 4.3 0.00 0.01 0.00 74 1017.4
20201025065701 29 29 2.6 7.0 0.00 0.01 0.00 74 1017.2
20201025065203 29 32 4.3 10.4 0.00 0.01 0.00 74 1017.1
20201025064702 29 44 1.7 7.0 0.00 0.01 0.00 75 1017.0
20201025064201 30 38 4.3 8.7 0.00 0.01 0.00 75 1016.9
20201025063701 30 38 2.6 5.2 0.00 0.01 0.00 75 1017.0
20201025063200 30 25 1.7 5.2 0.00 0.01 0.00 75 1017.1
20201025062701 30 33 1.7 7.0 0.00 0.01 0.00 75 1017.2
20201025062201 31 25 2.6 5.2 0.00 0.01 0.00 74 1017.0
20201025061704 31 45 2.6 8.7 0.00 0.01 0.00 74 1016.9
20201025061201 32 58 3.5 7.8 0.00 0.01 0.00 74 1016.9
20201025060701 32 39 4.3 7.8 0.00 0.01 0.00 74 1016.9
20201025060200 32 15 3.5 8.7 0.00 0.01 0.00 74 1016.8
20201025055703 33 22 3.5 7.8 0.00 0.01 0.01 74 1016.7
20201025055201 33 357 4.3 7.0 0.00 0.01 0.01 73 1016.7
20201025054701 33 16 1.7 7.0 0.00 0.01 0.01 72 1016.8
20201025054202 33 13 3.5 7.0 0.00 0.01 0.01 72 1016.7
20201025053701 33 0 4.3 7.8 0.00 0.01 0.01 71 1016.7
20201025053201 33 4 2.6 8.7 0.00 0.01 0.01 71 1016.8
20201025052701 33 11 2.6 10.4 0.00 0.01 0.01 71 1016.8
20201025052206 33 10 1.7 7.0 0.00 0.01 0.01 71 1016.8
20201025051701 33 12 2.6 6.1 0.00 0.01 0.01 71 1016.8
20201025051203 33 8 1.7 8.7 0.00 0.01 0.01 71 1016.7
20201025050705 33 18 1.7 8.7 0.00 0.01 0.01 70 1016.7
20201025050201 33 22 3.5 8.7 0.00 0.01 0.01 70 1016.7
20201025045712 33 49 0.9 7.0 0.00 0.01 0.01 70 1016.5
20201025045201 34 37 2.6 6.1 0.00 0.01 0.01 70 1016.5
20201025044703 34 17 4.3 7.8 0.00 0.01 0.01 69 1016.4
20201025044201 34 0 3.5 8.7 0.00 0.01 0.01 69 1016.4
20201025043704 34 0 3.5 10.4 0.00 0.01 0.01 69 1016.4
20201025043204 34 16 2.6 8.7 0.00 0.01 0.01 68 1016.4
20201025042701 34 32 4.3 12.2 0.00 0.01 0.01 68 1016.3
20201025042201 35 37 4.3 7.8 0.00 0.01 0.01 68 1016.2
20201025041702 35 3 3.5 8.7 0.00 0.01 0.01 68 1015.9
20201025041202 35 345 1.7 8.7 0.00 0.01 0.01 67 1015.9
20201025040703 35 5 2.6 8.7 0.00 0.01 0.01 67 1015.6
20201025040203 36 2 5.2 10.4 0.00 0.01 0.01 66 1015.7
20201025035700 36 353 1.7 10.4 0.00 0.01 0.01 65 1015.5
20201025035202 36 0 2.6 8.7 0.00 0.01 0.01 65 1015.3
20201025034706 36 350 1.7 11.3 0.00 0.01 0.01 64 1015.3
20201025034202 36 8 1.7 11.3 0.00 0.01 0.01 64 1015.2
20201025033701 37 0 3.5 13.0 0.00 0.01 0.01 63 1015.0
20201025033211 37 352 2.6 10.4 0.00 0.01 0.01 63 1015.1
20201025032701 37 9 2.6 10.4 0.00 0.01 0.01 63 1014.8
20201025032201 37 21 2.6 12.2 0.00 0.01 0.01 63 1014.6
20201025031701 37 358 2.6 7.8 0.00 0.01 0.01 63 1014.5
20201025031204 37 4 2.6 7.8 0.00 0.01 0.01 62 1014.4
20201025030703 38 1 0.9 5.2 0.00 0.01 0.01 62 1014.2
20201025030210 38 9 0.9 4.3 0.00 0.01 0.01 61 1014.0
20201025025703 38 331 2.6 7.8 0.00 0.01 0.01 61 1014.1
20201025025201 38 312 0.9 8.7 0.00 0.01 0.01 60 1014.1
20201025024706 38 352 0.9 2.6 0.00 0.01 0.01 60 1014.0
20201025024202 38 336 0.9 7.8 0.00 0.01 0.01 60 1013.9
20201025023703 39 344 1.7 6.1 0.00 0.01 0.01 60 1013.6
20201025023202 39 19 0.9 4.3 0.00 0.01 0.01 59 1013.5
20201025022710 39 0 0.9 2.6 0.00 0.01 0.01 59 1013.6
20201025022202 39 13 0.0 2.6 0.00 0.01 0.01 59 1013.5
20201025021701 39 355 0.9 2.6 0.00 0.01 0.01 60 1013.3
20201025021201 39 342 0.0 2.6 0.00 0.01 0.01 60 1013.4
20201025020702 39 324 0.0 2.6 0.00 0.01 0.01 59 1013.3
20201025020202 39 324 0.0 1.7 0.00 0.01 0.01 58 1013.1
20201025015705 40 323 0.0 0.0 0.00 0.01 0.01 57 1013.0
20201025015201 40 323 0.0 0.0 0.00 0.01 0.01 57 1012.7
20201025014703 40 254 0.0 0.0 0.00 0.01 0.01 56 1012.7
20201025014208 40 254 0.0 0.9 0.00 0.01 0.01 56 1012.5
20201025013701 41 250 0.0 0.0 0.00 0.01 0.01 56 1012.4
20201025013201 41 250 0.0 0.0 0.00 0.01 0.01 55 1012.5
20201025012704 41 250 0.9 1.7 0.00 0.01 0.01 54 1012.4
20201025012202 42 298 0.0 0.0 0.00 0.01 0.01 53 1012.1
20201025011701 42 298 0.0 0.0 0.00 0.01 0.01 53 1012.2
20201025011202 42 298 0.0 0.0 0.00 0.01 0.01 53 1012.3
20201025010704 42 298 0.0 0.0 0.00 0.01 0.01 52 1012.2
20201025010210 42 298 0.0 1.7 0.00 0.01 0.01 53 1012.3
20201025005704 43 40 0.0 0.9 0.00 0.01 0.01 51 1011.8
20201025005202 43 40 0.0 1.7 0.00 0.01 0.01 51 1012.0
20201025004701 43 45 0.0 0.0 0.00 0.01 0.01 51 1011.8
20201025004202 43 45 0.0 1.7 0.00 0.01 0.01 50 1011.7
20201025003707 44 5 0.0 1.7 0.00 0.01 0.01 50 1011.5
20201025003204 44 9 1.7 2.6 0.00 0.01 0.01 49 1011.4
20201025002700 44 7 0.0 1.7 0.00 0.01 0.01 49 1011.5
20201025002204 45 22 0.9 2.6 0.00 0.01 0.01 48 1011.4
20201025001701 45 46 1.7 2.6 0.00 0.01 0.01 47 1011.1
20201025001202 45 1 1.7 6.1 0.00 0.01 0.01 46 1011.3
20201025000702 46 13 1.7 5.2 0.00 0.01 0.01 46 1011.2
20201025000206 46 22 2.6 7.8 0.00 0.01 0.01 45 1011.1
20201024235704 47 0 1.7 4.3 0.00 0.01 0.01 45 1010.8
20201024235201 47 0 1.7 4.3 0.00 0.01 0.01 44 1010.9
20201024234703 48 0 2.6 7.8 0.00 0.01 0.01 43 1010.8
20201024234201 48 35 1.7 4.3 0.00 0.01 0.01 43 1010.6
20201024233701 49 56 1.7 2.6 0.00 0.01 0.01 42 1010.4
20201024233201 49 15 0.9 6.1 0.00 0.01 0.01 42 1010.6
20201024232702 49 19 1.7 4.3 0.00 0.01 0.01 42 1010.6
20201024232201 49 32 1.7 5.2 0.00 0.01 0.01 41 1010.6
20201024231702 50 358 3.5 7.8 0.00 0.01 0.01 41 1010.6
20201024231210 50 50 0.9 4.3 0.00 0.01 0.01 41 1010.5
20201024230701 50 30 1.7 4.3 0.00 0.01 0.01 40 1010.5
20201024230209 51 59 1.7 2.6 0.00 0.01 0.01 40 1010.3
20201024225703 51 25 0.9 2.6 0.00 0.01 0.01 40 1010.3
20201024225201 51 55 0.9 2.6 0.00 0.01 0.01 40 1010.2
20201024224705 51 91 0.0 2.6 0.00 0.01 0.01 40 1010.1
20201024224204 51 107 0.0 1.7 0.00 0.01 0.01 39 1010.1
20201024223703 51 17 0.0 2.6 0.00 0.01 0.01 39 1010.1
20201024223203 52 82 0.0 1.7 0.00 0.01 0.01 39 1010.0
20201024222707 52 62 0.9 2.6 0.00 0.01 0.01 38 1010.1
20201024222204 52 50 1.7 4.3 0.00 0.01 0.01 38 1009.9
20201024221704 52 66 1.7 4.3 0.00 0.01 0.01 38 1010.0
20201024221200 52 14 0.9 4.3 0.00 0.01 0.01 38 1009.9
20201024220705 52 27 1.7 2.6 0.00 0.01 0.01 38 1009.8
20201024220202 53 48 1.7 5.2 0.00 0.01 0.01 37 1009.7
20201024215702 53 49 2.6 5.2 0.00 0.01 0.01 36 1009.6
20201024215201 54 42 0.9 2.6 0.00 0.01 0.01 36 1009.7
20201024214705 54 82 1.7 2.6 0.00 0.01 0.01 36 1009.5
20201024214203 54 67 1.7 4.3 0.00 0.01 0.01 36 1009.6
20201024213702 54 116 0.9 7.0 0.00 0.01 0.01 38 1009.6
20201024213202 54 43 1.7 7.0 0.00 0.01 0.01 37 1009.5
20201024212701 54 72 2.6 4.3 0.00 0.01 0.01 37 1009.4
20201024212205 54 92 0.9 2.6 0.00 0.01 0.01 38 1009.4
20201024211708 54 66 2.6 5.2 0.00 0.01 0.01 38 1009.2
20201024211204 54 106 0.9 4.3 0.00 0.01 0.01 40 1009.3
20201024210708 54 38 3.5 5.2 0.00 0.01 0.01 38 1009.2
20201024210202 54 30 1.7 5.2 0.00 0.01 0.01 38 1009.1
20201024205702 54 66 0.9 2.6 0.00 0.01 0.01 40 1009.1
20201024205202 54 79 1.7 5.2 0.00 0.01 0.01 39 1009.2
20201024204702 54 50 1.7 4.3 0.00 0.01 0.01 40 1009.3
20201024204204 55 56 1.7 6.1 0.00 0.01 0.01 40 1009.2
20201024203703 55 25 3.5 7.8 0.00 0.01 0.01 40 1009.0
20201024203204 55 57 1.7 5.2 0.00 0.01 0.01 41 1008.8
20201024202703 55 54 1.7 6.1 0.00 0.01 0.01 40 1009.0
20201024202202 55 51 2.6 6.1 0.00 0.01 0.01 40 1008.8
20201024201702 55 32 0.9 2.6 0.00 0.01 0.01 40 1008.8
20201024201203 55 119 0.9 4.3 0.00 0.01 0.01 42 1008.8
20201024200702 55 77 0.9 2.6 0.00 0.01 0.01 42 1008.8
20201024200202 55 49 4.3 7.8 0.00 0.01 0.01 41 1008.8
20201024195701 56 76 2.6 5.2 0.00 0.01 0.01 41 1008.7
20201024195205 55 115 1.7 2.6 0.00 0.01 0.01 42 1008.8
20201024194702 55 76 0.9 2.6 0.00 0.01 0.01 43 1008.9
20201024194206 54 48 0.0 1.7 0.00 0.01 0.01 45 1008.9
20201024193702 54 32 0.9 2.6 0.00 0.01 0.01 45 1008.9
20201024193202 53 74 1.7 2.6 0.00 0.01 0.01 45 1008.9
20201024192709 53 85 1.7 4.3 0.00 0.01 0.01 46 1009.1
20201024192201 52 44 1.7 2.6 0.00 0.01 0.01 48 1009.2
20201024191701 52 92 1.7 4.3 0.00 0.01 0.01 48 1009.2
20201024191202 51 100 1.7 2.6 0.00 0.01 0.01 48 1009.3
20201024190706 51 83 1.7 5.2 0.00 0.01 0.01 48 1009.3
20201024190203 51 70 2.6 7.0 0.00 0.01 0.01 49 1009.5
20201024185703 51 61 1.7 4.3 0.00 0.01 0.01 50 1009.6
20201024185204 51 43 0.9 5.2 0.00 0.01 0.01 50 1009.7
20201024184703 51 57 1.7 6.1 0.00 0.01 0.01 50 1009.6
20201024184202 51 50 1.7 6.1 0.00 0.01 0.01 50 1009.7
20201024183703 50 45 0.9 4.3 0.00 0.01 0.01 51 1009.6
20201024183203 50 60 1.7 6.1 0.00 0.02 0.01 50 1009.6
20201024182706 50 25 0.9 4.3 0.00 0.02 0.01 50 1009.5
20201024182202 50 59 2.6 7.0 0.00 0.02 0.01 50 1009.5
20201024181701 50 61 2.6 4.3 0.00 0.02 0.01 50 1009.7
20201024181201 49 78 1.7 4.3 0.00 0.02 0.01 51 1009.6
20201024180701 49 38 0.9 2.6 0.00 0.02 0.01 52 1009.8
20201024180202 48 71 1.7 5.2 0.00 0.02 0.01 52 1010.0
20201024175704 48 36 2.6 4.3 0.00 0.02 0.01 54 1009.9
20201024175202 48 55 1.7 4.3 0.00 0.02 0.01 55 1010.0
20201024174710 47 355 2.6 7.0 0.00 0.02 0.01 56 1010.1
20201024174201 47 20 1.7 2.6 0.00 0.02 0.01 57 1010.0
20201024173702 47 42 1.7 4.3 0.00 0.02 0.01 58 1010.1
20201024173202 46 50 0.9 2.6 0.00 0.02 0.01 60 1010.2
20201024172703 46 37 1.7 5.2 0.00 0.02 0.01 61 1010.3
20201024172202 45 48 2.6 4.3 0.00 0.02 0.01 61 1010.3
20201024171704 45 29 0.9 1.7 0.00 0.02 0.01 63 1010.3
20201024171202 44 29 1.7 2.6 0.00 0.02 0.01 64 1010.4
20201024170705 44 48 1.7 4.3 0.00 0.02 0.01 65 1010.5
20201024170202 43 39 1.7 4.3 0.00 0.02 0.01 68 1010.5
20201024165701 42 66 1.7 2.6 0.00 0.02 0.01 71 1010.6
20201024165201 41 0 0.9 4.3 0.00 0.02 0.01 74 1010.5
20201024164701 40 159 0.9 2.6 0.00 0.02 0.01 77 1010.3
20201024164204 39 24 0.9 1.7 0.00 0.02 0.01 78 1010.6
20201024163702 38 20 0.0 2.6 0.00 0.02 0.01 81 1010.5
20201024163201 38 53 0.9 1.7 0.00 0.02 0.01 83 1010.6
20201024162701 37 143 0.0 2.6 0.00 0.02 0.01 84 1010.6
20201024162201 36 203 0.0 0.0 0.00 0.02 0.01 84 1010.6
20201024161705 35 203 0.0 1.7 0.01 0.02 0.01 85 1010.8
20201024161201 35 191 0.0 0.9 0.01 0.02 0.01 85 1010.8
20201024160701 34 57 0.0 2.6 0.01 0.02 0.01 87 1011.0
20201024160203 34 357 0.9 2.6 0.01 0.02 0.01 88 1010.9
20201024155702 33 52 0.9 2.6 0.01 0.02 0.01 89 1010.7
20201024155205 33 26 2.6 5.2 0.01 0.02 0.01 90 1010.8
20201024154701 32 2 1.7 2.6 0.01 0.02 0.01 91 1010.8
20201024154202 32 69 0.0 0.9 0.01 0.02 0.01 91 1010.7
20201024153702 32 69 0.0 0.0 0.01 0.02 0.01 91 1010.7
20201024153201 31 71 0.0 0.0 0.01 0.02 0.01 92 1010.5
20201024152702 31 56 0.0 0.0 0.01 0.02 0.01 92 1010.9
20201024152201 30 87 0.0 0.0 0.01 0.02 0.01 92 1010.6
20201024151701 30 186 0.0 0.0 0.00 0.01 0.00 93 1010.8
20201024151320 30 202 0.0 0.0 0.00 0.01 0.00 93 1010.6
20201024150706 29 202 0.0 0.0 0.00 0.01 0.00 92 1010.6
20201024150204 29 202 0.0 0.0 0.00 0.01 0.00 93 1010.4
20201024145701 29 202 0.0 0.0 0.00 0.01 0.00 92 1010.4
20201024145201 28 148 0.0 0.0 0.00 0.01 0.00 93 1010.6
20201024144711 28 140 0.0 0.0 0.00 0.01 0.00 93 1010.5
20201024144206 27 140 0.0 0.0 0.00 0.01 0.00 92 1010.5
20201024143705 27 149 0.0 0.0 0.00 0.01 0.00 92 1010.6
20201024143202 27 160 0.0 0.0 0.00 0.01 0.00 92 1010.8
20201024142702 27 160 0.0 0.0 0.00 0.01 0.00 92 1010.7
20201024142204 26 37 0.0 0.0 0.00 0.01 0.00 92 1010.7
20201024141702 26 167 0.0 0.0 0.00 0.01 0.00 92 1010.6
20201024141202 26 169 0.0 0.0 0.00 0.01 0.00 92 1010.7
20201024140701 25 192 0.0 0.0 0.00 0.01 0.00 92 1010.6
20201024140203 25 208 0.0 0.0 0.00 0.01 0.00 92 1010.6
20201024135706 25 213 0.0 0.0 0.00 0.01 0.00 92 1010.9
20201024135201 25 207 0.0 0.0 0.00 0.01 0.00 92 1010.7
20201024134703 25 189 0.0 0.0 0.00 0.01 0.00 92 1010.6
20201024134204 25 189 0.0 0.0 0.00 0.01 0.00 92 1010.6
20201024133702 25 111 0.0 0.0 0.00 0.01 0.00 92 1010.7
20201024133202 24 157 0.0 0.0 0.00 0.01 0.00 91 1010.5